createdAt,value
2023-05-03T00:07:57.118Z,99302.20
2023-05-03T00:18:23.043Z,99301.11
2023-05-03T00:28:48.762Z,99296.54
2023-05-03T00:39:14.684Z,99291.09
2023-05-03T00:49:40.327Z,99292.98
2023-05-03T01:00:09.588Z,99288.56
2023-05-03T01:10:43.312Z,99289.73
2023-05-03T01:21:11.392Z,99298.23
2023-05-03T01:31:43.562Z,99296.80
2023-05-03T01:42:09.479Z,99300.95
2023-05-03T01:52:35.274Z,99304.13
2023-05-03T02:03:01.174Z,99302.52
2023-05-03T02:13:27.219Z,99301.02
2023-05-03T02:23:54.382Z,99301.69
2023-05-03T02:34:20.964Z,99305.60
2023-05-03T02:44:46.965Z,99312.05
2023-05-03T02:55:13.003Z,99312.40
2023-05-03T03:05:39.029Z,99321.11
2023-05-03T03:16:05.074Z,99326.59
2023-05-03T03:26:30.812Z,99325.49
2023-05-03T03:36:57.311Z,99330.20
2023-05-03T03:47:23.621Z,99332.16
2023-05-03T03:57:49.901Z,99334.54
2023-05-03T04:08:15.647Z,99337.58
2023-05-03T04:18:41.736Z,99349.63
2023-05-03T04:29:07.418Z,99361.44
2023-05-03T04:39:33.280Z,99370.62
2023-05-03T04:49:59.916Z,99378.40
2023-05-03T05:00:26.368Z,99383.66
2023-05-03T05:10:52.104Z,99391.67
2023-05-03T05:21:17.554Z,99400.59
2023-05-03T05:31:43.507Z,99417.23
2023-05-03T05:42:09.834Z,99428.42
2023-05-03T05:52:35.562Z,99435.94
2023-05-03T06:03:01.488Z,99443.80
2023-05-03T06:13:27.186Z,99452.56
2023-05-03T06:23:52.904Z,99468.34
2023-05-03T06:34:21.796Z,99477.59
2023-05-03T06:44:48.309Z,99477.28
2023-05-03T06:55:14.368Z,99485.31
2023-05-03T07:05:40.473Z,99490.36
2023-05-03T07:16:07.725Z,99497.86
2023-05-03T07:26:33.372Z,99503.27
2023-05-03T07:36:58.832Z,99506.71
2023-05-03T07:47:25.158Z,99514.03
2023-05-03T07:57:51.107Z,99521.89
2023-05-03T08:08:17.281Z,99518.92
2023-05-03T08:18:43.927Z,99516.09
2023-05-03T08:29:10.148Z,99519.20
2023-05-03T08:39:36.558Z,99523.55
2023-05-03T08:50:05.082Z,99532.79
2023-05-03T09:00:32.129Z,99539.37
2023-05-03T09:10:58.247Z,99546.80
2023-05-03T09:21:23.818Z,99549.23
2023-05-03T09:32:01.957Z,99552.20
2023-05-03T09:42:29.042Z,99560.59
2023-05-03T09:52:56.386Z,99567.44
2023-05-03T10:03:29.604Z,99565.01
2023-05-03T10:13:56.102Z,99563.80
2023-05-03T10:24:22.337Z,99567.98
2023-05-03T10:34:48.054Z,99565.73
2023-05-03T10:45:25.706Z,99566.08
2023-05-03T10:56:08.495Z,99563.20
2023-05-03T11:06:36.595Z,99565.79
2023-05-03T11:17:02.646Z,99562.46
2023-05-03T11:27:28.791Z,99562.45
2023-05-03T11:37:54.968Z,99562.54
2023-05-03T11:48:20.908Z,99560.24
2023-05-03T11:58:58.558Z,99555.20
2023-05-03T12:09:29.199Z,99558.20
2023-05-03T12:30:46.764Z,99544.03
2023-05-03T12:41:15.865Z,99537.54
2023-05-03T12:51:55.459Z,99532.39
2023-05-03T13:13:14.582Z,99535.84
2023-05-03T13:23:40.265Z,99522.26
2023-05-03T13:34:07.135Z,99519.34
2023-05-03T13:44:32.825Z,99509.78
2023-05-03T13:55:01.136Z,99511.08
2023-05-03T14:05:27.349Z,99500.41
2023-05-03T14:15:53.418Z,99494.24
2023-05-03T14:26:19.701Z,99496.63
2023-05-03T14:36:45.569Z,99495.25
2023-05-03T14:47:11.913Z,99494.11
2023-05-03T14:57:38.291Z,99498.02
2023-05-03T15:08:04.173Z,99499.70
2023-05-03T15:18:30.044Z,99498.17
2023-05-03T15:28:55.563Z,99504.98
2023-05-03T15:39:21.650Z,99499.44
2023-05-03T15:49:47.351Z,99501.21
2023-05-03T16:00:16.341Z,99498.30
2023-05-03T16:10:43.066Z,99495.10
2023-05-03T16:21:09.263Z,99498.67
2023-05-03T16:31:35.455Z,99496.24
2023-05-03T16:42:02.954Z,99490.08
2023-05-03T16:52:29.016Z,99488.91
2023-05-03T17:02:54.897Z,99489.27
2023-05-03T17:13:20.783Z,99488.90
2023-05-03T17:23:46.835Z,99494.06
2023-05-03T17:34:12.892Z,99503.15
2023-05-03T17:44:38.810Z,99510.37
2023-05-03T17:55:04.709Z,99512.66
2023-05-03T18:05:36.801Z,99520.85
2023-05-03T18:16:02.350Z,99529.08
2023-05-03T18:26:28.017Z,99534.10
2023-05-03T18:36:54.022Z,99537.41
2023-05-03T18:47:21.707Z,99547.14
2023-05-03T18:57:47.419Z,99547.94
2023-05-03T19:08:13.136Z,99554.87
2023-05-03T19:18:42.055Z,99558.55
2023-05-03T19:29:09.127Z,99554.65
2023-05-03T19:39:37.854Z,99550.68
2023-05-03T19:50:03.381Z,99548.39
2023-05-03T20:00:29.996Z,99557.21
2023-05-03T20:10:56.853Z,99548.95
2023-05-03T20:21:22.533Z,99542.22
2023-05-03T20:31:48.684Z,99542.71
2023-05-03T20:42:15.284Z,99548.39
2023-05-03T20:52:41.177Z,99548.98
2023-05-03T21:03:07.329Z,99546.40
2023-05-03T21:13:35.862Z,99545.55
2023-05-03T21:24:01.857Z,99546.60
2023-05-03T21:34:27.619Z,99536.16
2023-05-03T21:44:53.498Z,99542.27
2023-05-03T21:55:19.665Z,99542.44
2023-05-03T22:05:47.980Z,99537.56
2023-05-03T22:16:13.206Z,99536.50
2023-05-03T22:26:39.146Z,99539.63
2023-05-03T22:37:05.442Z,99535.40
2023-05-03T22:47:31.247Z,99537.61
2023-05-03T22:57:56.884Z,99533.36
2023-05-03T23:08:23.437Z,99532.51
2023-05-03T23:18:49.045Z,99523.77
2023-05-03T23:29:14.817Z,99525.48
2023-05-03T23:39:46.035Z,99526.92
2023-05-03T23:50:12.915Z,99523.55
